createdAt,value
2022-12-12T00:00:00.817Z,370.0
2022-12-12T00:05:00.891Z,373.6
2022-12-12T00:10:00.819Z,372.7
2022-12-12T00:15:00.882Z,375.3
2022-12-12T00:20:00.858Z,366.8
2022-12-12T00:25:00.939Z,363.4
2022-12-12T00:30:00.830Z,360.9
2022-12-12T00:35:00.884Z,349.8
2022-12-12T00:40:00.847Z,349.5
2022-12-12T00:45:00.967Z,357.8
2022-12-12T00:50:00.886Z,375.8
2022-12-12T00:55:00.956Z,391.0
2022-12-12T01:00:00.849Z,419.1
2022-12-12T01:05:00.926Z,452.3
2022-12-12T01:10:01.864Z,483.0
2022-12-12T01:15:00.892Z,506.7
2022-12-12T01:35:01.156Z,574.6
2022-12-12T01:40:01.116Z,616.5
2022-12-12T01:45:01.116Z,618.1
2022-12-12T01:50:01.050Z,594.0
2022-12-12T01:55:01.210Z,577.9
2022-12-12T02:00:01.064Z,543.6
2022-12-12T02:05:01.178Z,504.2
2022-12-12T02:10:01.083Z,471.7
2022-12-12T02:15:01.146Z,475.1
2022-12-12T02:20:06.058Z,468.0
2022-12-12T02:25:01.186Z,480.3
2022-12-12T02:45:01.041Z,504.0
2022-12-12T02:50:00.943Z,497.1
2022-12-12T02:55:01.010Z,481.7
2022-12-12T03:00:00.940Z,488.4
2022-12-12T03:05:01.038Z,489.2
2022-12-12T03:10:00.941Z,502.0
2022-12-12T03:15:01.005Z,500.6
2022-12-12T03:20:00.953Z,517.1
2022-12-12T03:25:01.042Z,511.5
2022-12-12T03:30:00.943Z,528.0
2022-12-12T03:35:01.085Z,510.6
2022-12-12T03:40:00.940Z,504.7
2022-12-12T03:45:01.096Z,492.0
2022-12-12T03:50:00.947Z,498.0
2022-12-12T03:55:01.108Z,475.7
2022-12-12T04:00:00.945Z,474.7
2022-12-12T04:05:01.031Z,501.9
2022-12-12T04:10:00.943Z,514.4
2022-12-12T04:15:01.010Z,514.2
2022-12-12T04:20:01.031Z,522.0
2022-12-12T04:25:01.031Z,519.3
2022-12-12T04:30:00.939Z,494.3
2022-12-12T04:35:01.005Z,501.0
2022-12-12T04:40:00.964Z,495.9
2022-12-12T04:45:01.038Z,497.7
2022-12-12T04:50:00.943Z,518.2
2022-12-12T04:55:01.006Z,530.2
2022-12-12T05:00:01.103Z,539.2
2022-12-12T05:05:01.036Z,555.4
2022-12-12T05:10:01.083Z,559.2
2022-12-12T05:15:01.069Z,562.0
2022-12-12T05:20:00.944Z,562.7
2022-12-12T05:25:01.077Z,523.9
2022-12-12T05:30:00.946Z,494.0
2022-12-12T05:35:01.015Z,457.9
2022-12-12T05:40:00.952Z,423.7
2022-12-12T05:45:01.109Z,396.5
2022-12-12T05:50:00.951Z,391.4
2022-12-12T05:55:01.078Z,392.8
2022-12-12T06:00:00.956Z,411.2
2022-12-12T06:05:01.041Z,425.0
2022-12-12T06:10:00.956Z,445.0
2022-12-12T06:15:06.033Z,470.3
2022-12-12T06:20:00.980Z,473.0
2022-12-12T06:25:01.055Z,486.9
2022-12-12T06:30:00.964Z,495.8
2022-12-12T06:35:01.021Z,481.4
2022-12-12T06:40:00.950Z,462.6
2022-12-12T06:45:01.038Z,454.8
2022-12-12T06:50:00.947Z,439.7
2022-12-12T06:55:01.015Z,417.0
2022-12-12T07:00:00.952Z,412.8
2022-12-12T07:05:01.043Z,394.3
2022-12-12T07:10:00.953Z,399.2
2022-12-12T07:15:01.017Z,385.6
2022-12-12T07:20:00.950Z,379.3
2022-12-12T07:25:01.110Z,362.6
2022-12-12T07:30:00.980Z,409.6
2022-12-12T07:35:01.078Z,391.6
2022-12-12T07:40:00.948Z,393.4
2022-12-12T07:45:01.173Z,387.2
2022-12-12T07:50:00.967Z,394.0
2022-12-12T08:05:01.458Z,320.6
2022-12-12T08:10:01.221Z,326.0
2022-12-12T08:15:01.344Z,329.8
2022-12-12T08:20:01.219Z,324.6
2022-12-12T08:25:01.408Z,322.0
2022-12-12T08:30:01.616Z,321.7
2022-12-12T08:35:01.275Z,316.7
2022-12-12T08:40:01.281Z,308.8
2022-12-12T08:45:01.291Z,306.5
2022-12-12T08:50:01.194Z,307.9
2022-12-12T08:55:01.329Z,301.9
2022-12-12T09:00:01.185Z,303.9
2022-12-12T09:05:01.439Z,307.3
2022-12-12T09:10:01.188Z,306.8
2022-12-12T09:15:01.252Z,313.0
2022-12-12T09:20:01.181Z,321.8
2022-12-12T09:25:01.272Z,331.5
2022-12-12T09:30:01.201Z,338.6
2022-12-12T09:35:01.307Z,351.6
2022-12-12T09:40:01.175Z,349.4
2022-12-12T09:45:01.326Z,356.5
2022-12-12T09:50:01.186Z,354.2
2022-12-12T09:55:01.259Z,364.3
2022-12-12T10:00:01.164Z,370.4
2022-12-12T10:05:01.255Z,383.9
2022-12-12T10:10:01.150Z,386.3
2022-12-12T10:15:02.188Z,391.7
2022-12-12T10:20:01.155Z,391.1
2022-12-12T10:25:01.304Z,390.3
2022-12-12T10:30:01.148Z,383.8
2022-12-12T10:35:01.219Z,384.2
2022-12-12T10:40:01.149Z,389.4
2022-12-12T10:45:01.226Z,398.0
2022-12-12T11:05:01.308Z,514.2
2022-12-12T11:10:02.368Z,505.6
2022-12-12T11:15:01.183Z,497.0
2022-12-12T11:20:01.202Z,493.3
2022-12-12T11:25:01.271Z,488.3
2022-12-12T11:30:01.179Z,478.6
2022-12-12T11:35:01.238Z,471.8
2022-12-12T11:40:01.108Z,443.6
2022-12-12T11:45:01.266Z,439.6
2022-12-12T12:05:01.091Z,453.4
2022-12-12T12:25:02.671Z,527.2
2022-12-12T12:45:01.068Z,515.4
2022-12-12T13:05:01.779Z,412.6
2022-12-12T13:10:01.467Z,443.5
2022-12-12T13:15:06.476Z,411.8
2022-12-12T13:20:01.530Z,418.2
2022-12-12T13:25:01.557Z,420.4
2022-12-12T13:30:01.394Z,402.1
2022-12-12T13:35:01.516Z,427.0
2022-12-12T13:40:01.392Z,419.6
2022-12-12T13:45:02.627Z,401.1
2022-12-12T14:05:01.299Z,354.2
2022-12-12T14:10:01.198Z,326.2
2022-12-12T14:15:01.256Z,335.3
2022-12-12T14:20:01.183Z,333.9
2022-12-12T14:25:01.286Z,351.2
2022-12-12T14:30:01.181Z,349.8
2022-12-12T14:35:06.245Z,364.0
2022-12-12T14:55:01.318Z,322.8
2022-12-12T15:00:00.979Z,329.5
2022-12-12T15:05:04.703Z,331.5
2022-12-12T15:10:00.967Z,335.1
2022-12-12T15:15:01.113Z,346.2
2022-12-12T15:20:00.981Z,367.2
2022-12-12T15:25:07.248Z,373.1
2022-12-12T15:45:02.074Z,393.0
2022-12-12T15:50:02.185Z,432.6
2022-12-12T15:55:01.786Z,430.2
2022-12-12T16:00:01.648Z,442.1
2022-12-12T16:05:01.878Z,423.6
2022-12-12T16:10:01.655Z,416.6
2022-12-12T16:25:01.438Z,363.2
2022-12-12T16:30:01.412Z,366.8
2022-12-12T16:45:00.943Z,296.0
2022-12-12T16:50:00.996Z,393.3
2022-12-12T16:55:00.995Z,450.8
2022-12-12T17:00:00.826Z,416.2
2022-12-12T17:05:01.092Z,415.4
2022-12-12T17:10:00.939Z,450.8
2022-12-12T17:15:00.896Z,426.0
2022-12-12T17:20:05.801Z,412.1
2022-12-12T17:25:00.920Z,444.7
2022-12-12T17:30:00.795Z,468.6
2022-12-12T17:35:00.848Z,456.8
2022-12-12T17:40:00.878Z,488.9
2022-12-12T17:45:00.908Z,473.8
2022-12-12T17:50:00.816Z,462.6
2022-12-12T17:55:51.327Z,454.2
2022-12-12T18:00:00.830Z,456.6
2022-12-12T18:05:00.859Z,451.1
2022-12-12T18:10:00.796Z,466.8
2022-12-12T18:15:01.135Z,464.9
2022-12-12T18:20:00.822Z,459.7
2022-12-12T18:25:00.933Z,450.1
2022-12-12T18:30:00.808Z,455.1
2022-12-12T18:35:01.128Z,459.5
2022-12-12T18:40:00.840Z,486.8
2022-12-12T18:45:00.868Z,492.8
2022-12-12T18:50:00.792Z,522.7
2022-12-12T18:55:00.949Z,524.5
2022-12-12T19:00:00.887Z,510.3
2022-12-12T19:05:01.294Z,497.2
2022-12-12T19:10:01.149Z,502.6
2022-12-12T19:15:16.577Z,490.5
2022-12-12T19:20:01.070Z,474.9
2022-12-12T19:25:01.120Z,481.9
2022-12-12T19:30:00.820Z,492.4
2022-12-12T19:35:01.333Z,480.6
2022-12-12T19:40:01.788Z,449.0
2022-12-12T19:45:00.897Z,446.3
2022-12-12T19:50:00.771Z,457.7
2022-12-12T19:55:00.867Z,446.6
2022-12-12T20:00:00.775Z,455.7
2022-12-12T20:05:00.840Z,489.7
2022-12-12T20:10:00.775Z,500.6
2022-12-12T20:15:00.925Z,472.8
2022-12-12T20:20:00.764Z,479.0
2022-12-12T20:25:00.836Z,484.7
2022-12-12T20:30:00.774Z,489.6
2022-12-12T20:35:00.866Z,500.4
2022-12-12T20:40:00.773Z,505.6
2022-12-12T20:45:00.900Z,508.1
2022-12-12T20:50:00.766Z,499.8
2022-12-12T20:55:00.929Z,506.3
2022-12-12T21:00:00.772Z,508.8
2022-12-12T21:05:00.936Z,524.6
2022-12-12T21:10:00.796Z,514.8
2022-12-12T21:15:02.822Z,523.5
2022-12-12T21:20:06.219Z,505.3
2022-12-12T21:25:00.882Z,491.6
2022-12-12T21:30:00.815Z,498.9
2022-12-12T21:35:00.981Z,506.9
2022-12-12T21:40:00.814Z,503.0
2022-12-12T21:45:00.950Z,524.1
2022-12-12T21:50:00.809Z,516.0
2022-12-12T21:55:00.913Z,508.4
2022-12-12T22:00:00.817Z,491.6
2022-12-12T22:05:00.961Z,490.7
2022-12-12T22:10:10.279Z,490.6
2022-12-12T22:15:00.966Z,488.4
2022-12-12T22:20:00.823Z,463.6
2022-12-12T22:25:00.939Z,461.8
2022-12-12T22:30:00.818Z,458.8
2022-12-12T22:35:00.900Z,453.7
2022-12-12T22:40:00.818Z,451.2
2022-12-12T22:45:00.941Z,480.5
2022-12-12T22:50:00.813Z,477.6
2022-12-12T22:55:00.971Z,474.7
2022-12-12T23:00:00.817Z,477.9
2022-12-12T23:05:01.120Z,473.6
2022-12-12T23:10:00.823Z,449.8
2022-12-12T23:15:00.972Z,462.7
2022-12-12T23:20:00.828Z,466.7
2022-12-12T23:25:00.948Z,446.7
2022-12-12T23:30:00.813Z,474.2
2022-12-12T23:35:00.920Z,489.0
2022-12-12T23:40:01.187Z,500.0
2022-12-12T23:45:00.882Z,484.6
2022-12-12T23:50:00.836Z,498.1
2022-12-12T23:55:00.977Z,475.0
